createdAt,value
2023-01-17T00:00:34.919Z,0.47
2023-01-17T00:03:01.602Z,0.52
2023-01-17T00:05:46.949Z,0.58
2023-01-17T00:08:31.950Z,0.58
2023-01-17T00:10:58.765Z,0.68
2023-01-17T00:13:25.379Z,0.72
2023-01-17T00:15:52.386Z,0.76
2023-01-17T00:18:19.098Z,0.84
2023-01-17T00:21:04.043Z,0.78
2023-01-17T00:23:49.153Z,0.98
2023-01-17T00:26:17.984Z,0.90
2023-01-17T00:28:45.743Z,0.80
2023-01-17T00:31:13.864Z,0.84
2023-01-17T00:33:40.524Z,0.83
2023-01-17T00:36:08.004Z,0.84
2023-01-17T00:38:36.963Z,0.89
2023-01-17T00:41:06.034Z,0.82
2023-01-17T00:43:51.469Z,0.77
2023-01-17T00:46:37.355Z,0.86
2023-01-17T00:49:22.997Z,0.96
2023-01-17T00:52:08.172Z,0.98
2023-01-17T00:54:53.360Z,1.00
2023-01-17T00:57:38.369Z,1.03
2023-01-17T01:00:24.135Z,1.01
2023-01-17T01:03:09.182Z,0.94
2023-01-17T01:05:56.037Z,0.90
2023-01-17T01:08:45.448Z,0.95
2023-01-17T01:11:32.734Z,1.02
2023-01-17T01:14:18.525Z,0.99
2023-01-17T01:17:03.935Z,1.06
2023-01-17T01:19:49.268Z,0.99
2023-01-17T01:22:34.253Z,1.00
2023-01-17T01:25:19.297Z,1.08
2023-01-17T01:28:04.461Z,1.12
2023-01-17T01:30:49.560Z,1.13
2023-01-17T01:33:19.090Z,1.15
2023-01-17T01:35:55.635Z,1.27
2023-01-17T01:38:24.076Z,1.32
2023-01-17T01:40:53.182Z,1.40
2023-01-17T01:43:41.460Z,1.32
2023-01-17T01:46:10.683Z,1.35
2023-01-17T01:48:51.729Z,1.20
2023-01-17T01:51:24.067Z,1.24
2023-01-17T01:53:54.774Z,1.15
2023-01-17T01:56:23.524Z,1.22
2023-01-17T01:58:51.501Z,1.22
2023-01-17T02:01:18.511Z,1.20
2023-01-17T02:03:45.927Z,0.99
2023-01-17T02:06:28.435Z,0.99
2023-01-17T02:08:57.509Z,0.99
2023-01-17T02:11:24.202Z,1.08
2023-01-17T02:13:50.796Z,1.11
2023-01-17T02:16:32.130Z,1.01
2023-01-17T02:19:13.999Z,1.12
2023-01-17T02:21:55.474Z,1.13
2023-01-17T02:24:33.981Z,1.15
2023-01-17T02:27:25.604Z,1.22
2023-01-17T02:30:33.726Z,1.27
2023-01-17T02:33:15.170Z,1.30
2023-01-17T02:35:54.852Z,1.31
2023-01-17T02:38:46.032Z,1.25
2023-01-17T02:41:19.821Z,1.32
2023-01-17T02:43:49.663Z,1.40
2023-01-17T02:46:16.510Z,1.43
2023-01-17T02:48:43.247Z,1.47
2023-01-17T02:51:39.042Z,1.40
2023-01-17T02:54:30.290Z,1.38
2023-01-17T02:57:06.622Z,1.36
2023-01-17T02:59:40.587Z,1.46
2023-01-17T03:02:28.281Z,1.36
2023-01-17T03:05:00.847Z,1.35
2023-01-17T03:07:28.292Z,1.42
2023-01-17T03:10:01.738Z,1.26
2023-01-17T03:12:30.113Z,1.25
2023-01-17T03:14:57.065Z,1.27
2023-01-17T03:17:30.349Z,1.33
2023-01-17T03:19:56.963Z,1.48
2023-01-17T03:22:23.712Z,1.52
2023-01-17T03:24:50.571Z,1.47
2023-01-17T03:27:17.115Z,1.43
2023-01-17T03:29:43.737Z,1.46
2023-01-17T03:32:10.395Z,1.37
2023-01-17T03:34:36.949Z,1.42
2023-01-17T03:37:03.555Z,1.41
2023-01-17T03:39:30.137Z,1.38
2023-01-17T03:41:56.733Z,1.42
2023-01-17T03:44:23.399Z,1.41
2023-01-17T03:46:49.963Z,1.39
2023-01-17T03:49:16.785Z,1.41
2023-01-17T03:51:43.361Z,1.46
2023-01-17T03:54:10.011Z,1.39
2023-01-17T03:56:36.579Z,1.39
2023-01-17T03:59:03.214Z,1.36
2023-01-17T04:01:29.873Z,1.43
2023-01-17T04:03:56.495Z,1.35
2023-01-17T04:06:23.069Z,1.41
2023-01-17T04:08:49.637Z,1.42
2023-01-17T04:11:16.228Z,1.36
2023-01-17T04:13:42.832Z,1.46
2023-01-17T04:16:14.488Z,1.39
2023-01-17T04:18:41.292Z,1.43
2023-01-17T04:21:08.227Z,1.42
2023-01-17T04:23:35.093Z,1.35
2023-01-17T04:26:03.533Z,1.49
2023-01-17T04:28:30.211Z,1.42
2023-01-17T04:31:00.388Z,1.33
2023-01-17T04:33:27.085Z,1.34
2023-01-17T04:35:54.302Z,1.24
2023-01-17T04:38:21.543Z,1.28
2023-01-17T04:40:48.658Z,1.29
2023-01-17T04:43:16.268Z,1.29
2023-01-17T04:45:43.537Z,1.30
2023-01-17T04:48:12.633Z,1.22
2023-01-17T04:50:39.710Z,1.18
2023-01-17T04:53:06.323Z,1.12
2023-01-17T04:55:32.953Z,1.12
2023-01-17T04:57:59.524Z,1.16
2023-01-17T05:00:26.118Z,1.12
2023-01-17T05:02:53.047Z,1.11
2023-01-17T05:05:19.648Z,1.08
2023-01-17T05:07:53.485Z,1.06
2023-01-17T05:10:20.062Z,1.02
2023-01-17T05:12:54.070Z,1.13
2023-01-17T05:15:20.694Z,1.07
2023-01-17T05:17:47.317Z,1.05
2023-01-17T05:20:13.980Z,1.05
2023-01-17T05:22:40.526Z,1.02
2023-01-17T05:25:07.526Z,1.01
2023-01-17T05:27:34.181Z,0.99
2023-01-17T05:30:00.735Z,0.99
2023-01-17T05:32:27.309Z,0.98
2023-01-17T05:34:54.007Z,0.97
2023-01-17T05:37:20.779Z,0.96
2023-01-17T05:39:47.614Z,1.00
2023-01-17T05:42:14.169Z,0.96
2023-01-17T05:44:40.733Z,0.95
2023-01-17T05:47:07.281Z,0.93
2023-01-17T05:49:34.270Z,0.96
2023-01-17T05:52:00.930Z,0.87
2023-01-17T05:54:27.461Z,1.04
2023-01-17T05:56:54.021Z,1.04
2023-01-17T05:59:32.262Z,0.99
2023-01-17T06:02:02.817Z,0.93
2023-01-17T06:04:29.443Z,0.96
2023-01-17T06:06:56.017Z,0.96
2023-01-17T06:09:22.558Z,0.85
2023-01-17T06:11:49.162Z,0.91
2023-01-17T06:14:15.691Z,0.91
2023-01-17T06:16:42.322Z,0.98
2023-01-17T06:19:09.485Z,0.94
2023-01-17T06:21:36.073Z,0.94
2023-01-17T06:24:04.235Z,0.87
2023-01-17T06:26:30.925Z,0.95
2023-01-17T06:28:57.535Z,0.93
2023-01-17T06:31:24.171Z,0.95
2023-01-17T06:33:50.723Z,0.95
2023-01-17T06:36:17.264Z,0.95
2023-01-17T06:38:43.825Z,0.92
2023-01-17T06:41:10.375Z,0.96
2023-01-17T06:43:36.909Z,1.00
2023-01-17T06:46:03.586Z,0.96
2023-01-17T06:48:30.144Z,1.00
2023-01-17T06:50:57.894Z,1.02
2023-01-17T06:53:24.636Z,1.02
2023-01-17T06:55:52.664Z,1.10
2023-01-17T06:58:19.303Z,1.14
2023-01-17T07:00:45.948Z,1.16
2023-01-17T07:03:18.921Z,1.14
2023-01-17T07:05:45.559Z,1.21
2023-01-17T07:08:12.135Z,1.14
2023-01-17T07:10:38.720Z,1.13
2023-01-17T07:13:05.314Z,1.16
2023-01-17T07:15:31.909Z,1.30
2023-01-17T07:18:01.238Z,1.36
2023-01-17T07:20:28.698Z,1.40
2023-01-17T07:22:55.317Z,1.32
2023-01-17T07:25:21.908Z,1.42
2023-01-17T07:27:48.567Z,1.31
2023-01-17T07:30:15.326Z,1.38
2023-01-17T07:32:41.887Z,1.43
2023-01-17T07:35:08.842Z,1.50
2023-01-17T07:37:35.382Z,1.64
2023-01-17T07:40:03.025Z,1.70
2023-01-17T07:42:29.648Z,1.75
2023-01-17T07:44:56.208Z,1.73
2023-01-17T07:47:24.749Z,1.77
2023-01-17T07:49:51.322Z,1.81
2023-01-17T07:52:18.361Z,1.89
2023-01-17T07:54:45.006Z,1.94
2023-01-17T07:57:12.598Z,2.00
2023-01-17T07:59:39.140Z,2.07
2023-01-17T08:02:06.049Z,2.18
2023-01-17T08:04:35.188Z,2.25
2023-01-17T08:07:01.943Z,2.28
2023-01-17T08:09:28.684Z,2.27
2023-01-17T08:11:55.257Z,2.30
2023-01-17T08:14:21.794Z,2.36
2023-01-17T08:16:48.331Z,2.39
2023-01-17T08:19:15.245Z,2.34
2023-01-17T08:21:41.823Z,2.33
2023-01-17T08:24:14.711Z,2.28
2023-01-17T08:26:41.392Z,2.38
2023-01-17T08:29:08.245Z,2.50
2023-01-17T08:31:35.400Z,2.72
2023-01-17T08:34:02.374Z,3.09
2023-01-17T08:36:31.128Z,3.25
2023-01-17T08:38:57.827Z,3.42
2023-01-17T08:41:24.889Z,3.57
2023-01-17T08:43:52.103Z,3.87
2023-01-17T08:46:19.387Z,4.13
2023-01-17T08:48:46.493Z,4.46
2023-01-17T08:51:13.506Z,4.65
2023-01-17T08:53:40.712Z,4.78
2023-01-17T08:56:07.714Z,4.91
2023-01-17T08:58:35.829Z,5.02
2023-01-17T09:01:03.615Z,5.13
2023-01-17T09:03:31.527Z,5.09
2023-01-17T09:06:02.703Z,5.10
2023-01-17T09:08:29.319Z,5.02
2023-01-17T09:10:56.076Z,5.12
2023-01-17T09:13:23.592Z,5.15
2023-01-17T09:15:50.223Z,5.15
2023-01-17T09:18:16.916Z,5.03
2023-01-17T09:20:43.484Z,5.03
2023-01-17T09:23:10.057Z,5.04
2023-01-17T09:25:36.587Z,5.00
2023-01-17T09:28:03.185Z,5.00
2023-01-17T09:30:29.781Z,5.04
2023-01-17T09:32:57.330Z,5.07
2023-01-17T09:41:35.812Z,5.44
2023-01-17T09:44:21.867Z,5.67
2023-01-17T09:46:49.052Z,5.77
2023-01-17T09:49:24.660Z,5.87
2023-01-17T09:51:53.457Z,5.88
2023-01-17T09:54:24.286Z,6.04
2023-01-17T09:57:03.151Z,6.10
2023-01-17T10:00:02.868Z,6.14
2023-01-17T10:03:01.015Z,6.26
2023-01-17T10:05:50.451Z,6.34
2023-01-17T10:08:26.391Z,6.51
2023-01-17T10:10:55.954Z,6.81
2023-01-17T10:13:54.132Z,6.95
2023-01-17T10:16:27.191Z,7.08
2023-01-17T10:19:08.977Z,7.15
2023-01-17T10:21:51.350Z,7.05
2023-01-17T10:24:22.458Z,6.91
2023-01-17T10:26:51.368Z,6.83
2023-01-17T10:29:20.908Z,6.70
2023-01-17T10:32:14.287Z,6.64
2023-01-17T10:34:45.453Z,6.59
2023-01-17T10:37:18.330Z,6.66
2023-01-17T10:39:47.743Z,6.74
2023-01-17T10:42:23.442Z,6.79
2023-01-17T10:45:07.151Z,6.76
2023-01-17T10:47:36.944Z,6.92
2023-01-17T10:50:05.344Z,7.09
2023-01-17T10:52:45.257Z,7.37
2023-01-17T10:55:11.874Z,7.64
2023-01-17T10:57:40.989Z,7.94
2023-01-17T11:00:40.094Z,8.10
2023-01-17T11:03:06.870Z,8.38
2023-01-17T11:05:34.118Z,8.71
2023-01-17T11:08:06.748Z,9.17
2023-01-17T11:10:35.576Z,9.31
2023-01-17T11:13:04.835Z,9.07
2023-01-17T11:15:33.768Z,9.08
2023-01-17T11:18:06.395Z,9.00
2023-01-17T11:20:36.381Z,8.69
2023-01-17T11:23:08.189Z,8.82
2023-01-17T11:25:35.185Z,8.89
2023-01-17T11:28:23.663Z,8.91
2023-01-17T11:30:58.633Z,8.81
2023-01-17T11:33:47.896Z,8.76
2023-01-17T11:36:19.962Z,8.84
2023-01-17T11:39:06.618Z,8.83
2023-01-17T11:41:41.154Z,8.75
2023-01-17T11:44:33.880Z,8.84
2023-01-17T11:47:12.685Z,8.78
2023-01-17T11:49:40.661Z,8.81
2023-01-17T11:52:17.099Z,8.81
2023-01-17T11:54:45.777Z,8.74
2023-01-17T11:57:33.402Z,8.69
2023-01-17T12:00:37.996Z,8.54
2023-01-17T12:03:23.850Z,8.47
2023-01-17T12:05:57.952Z,8.57
2023-01-17T12:08:58.694Z,8.58
2023-01-17T12:11:37.178Z,8.54
2023-01-17T12:14:16.607Z,8.63
2023-01-17T12:16:46.332Z,8.70
2023-01-17T12:19:51.586Z,8.79
2023-01-17T12:22:27.760Z,8.91
2023-01-17T12:25:19.233Z,8.95
2023-01-17T12:28:11.337Z,9.02
2023-01-17T12:30:47.386Z,9.08
2023-01-17T12:33:33.314Z,9.17
2023-01-17T12:36:23.223Z,9.09
2023-01-17T12:38:50.082Z,9.10
2023-01-17T12:41:48.220Z,9.08
2023-01-17T12:44:16.413Z,8.98
2023-01-17T12:46:50.799Z,8.97
2023-01-17T12:49:43.231Z,8.87
2023-01-17T12:52:14.702Z,8.86
2023-01-17T12:54:44.276Z,8.87
2023-01-17T12:57:32.069Z,8.92
2023-01-17T13:00:05.718Z,8.76
2023-01-17T13:02:43.861Z,8.62
2023-01-17T13:05:12.624Z,8.39
2023-01-17T13:07:46.643Z,8.28
2023-01-17T13:10:19.381Z,8.26
2023-01-17T13:12:46.875Z,8.16
2023-01-17T13:15:19.619Z,7.97
2023-01-17T13:17:51.945Z,7.93
2023-01-17T13:20:22.716Z,7.89
2023-01-17T13:22:50.032Z,7.66
2023-01-17T13:25:34.825Z,7.57
2023-01-17T13:28:36.473Z,7.55
2023-01-17T13:31:13.696Z,7.49
2023-01-17T13:33:58.931Z,7.40
2023-01-17T13:39:39.489Z,7.14
2023-01-17T13:42:27.959Z,7.02
2023-01-17T13:44:54.651Z,6.86
2023-01-17T13:47:22.999Z,6.80
2023-01-17T13:49:51.539Z,6.75
2023-01-17T13:52:21.164Z,6.63
2023-01-17T13:55:02.610Z,6.50
2023-01-17T13:57:36.068Z,6.56
2023-01-17T14:00:21.313Z,6.45
2023-01-17T14:02:49.525Z,6.41
2023-01-17T14:05:20.487Z,6.37
2023-01-17T14:07:52.490Z,6.27
2023-01-17T14:10:47.743Z,6.22
2023-01-17T14:13:37.174Z,6.07
2023-01-17T14:16:24.025Z,5.93
2023-01-17T14:18:50.721Z,5.98
2023-01-17T14:21:31.585Z,5.97
2023-01-17T14:24:05.236Z,5.90
2023-01-17T14:26:45.417Z,5.82
2023-01-17T14:29:43.943Z,5.73
2023-01-17T14:32:12.947Z,5.73
2023-01-17T14:34:40.155Z,5.69
2023-01-17T14:37:17.903Z,5.66
2023-01-17T14:39:46.555Z,5.62
2023-01-17T14:42:18.638Z,5.58
2023-01-17T14:44:49.771Z,5.48
2023-01-17T14:47:16.939Z,5.53
2023-01-17T14:49:44.114Z,5.49
2023-01-17T14:52:16.482Z,5.35
2023-01-17T14:54:50.774Z,5.26
2023-01-17T14:57:28.461Z,5.27
2023-01-17T15:00:19.861Z,5.17
2023-01-17T15:02:47.980Z,5.10
2023-01-17T15:05:16.149Z,5.22
2023-01-17T15:07:44.167Z,5.17
2023-01-17T15:10:15.891Z,5.08
2023-01-17T15:12:46.639Z,5.04
2023-01-17T15:15:35.390Z,5.02
2023-01-17T15:18:17.247Z,5.03
2023-01-17T15:20:53.596Z,4.96
2023-01-17T15:23:22.292Z,4.94
2023-01-17T15:25:50.803Z,4.94
2023-01-17T15:28:18.064Z,4.90
2023-01-17T15:31:23.724Z,4.87
2023-01-17T15:33:55.269Z,4.87
2023-01-17T15:36:30.036Z,4.94
2023-01-17T15:39:00.254Z,4.80
2023-01-17T15:41:30.869Z,4.84
2023-01-17T15:43:58.728Z,4.77
2023-01-17T15:46:42.321Z,4.78
2023-01-17T15:49:21.890Z,4.80
2023-01-17T15:51:56.608Z,4.77
2023-01-17T15:54:28.996Z,4.84
2023-01-17T15:57:03.008Z,4.79
2023-01-17T15:59:50.998Z,4.85
2023-01-17T16:02:43.342Z,4.90
2023-01-17T16:05:22.695Z,4.77
2023-01-17T16:07:54.735Z,4.78
2023-01-17T16:10:24.792Z,4.75
2023-01-17T16:12:53.917Z,4.76
2023-01-17T16:15:20.725Z,4.79
2023-01-17T16:17:49.378Z,4.64
2023-01-17T16:20:19.782Z,4.83
2023-01-17T16:22:47.159Z,4.75
2023-01-17T16:25:19.136Z,4.77
2023-01-17T16:27:45.902Z,4.71
2023-01-17T16:30:17.296Z,4.71
2023-01-17T16:32:51.483Z,4.68
2023-01-17T16:35:23.997Z,4.63
2023-01-17T16:37:55.792Z,4.66
2023-01-17T16:40:25.407Z,4.63
2023-01-17T16:42:52.001Z,4.66
2023-01-17T16:45:18.894Z,4.79
2023-01-17T16:47:46.929Z,4.63
2023-01-17T16:50:18.993Z,4.63
2023-01-17T16:52:45.730Z,4.58
2023-01-17T16:55:14.866Z,4.59
2023-01-17T16:57:42.082Z,4.62
2023-01-17T17:00:17.825Z,4.60
2023-01-17T17:02:44.632Z,4.63
2023-01-17T17:05:15.088Z,4.59
2023-01-17T17:07:45.460Z,4.52
2023-01-17T17:10:14.081Z,4.54
2023-01-17T17:12:41.126Z,4.51
2023-01-17T17:15:10.770Z,4.49
2023-01-17T17:17:39.325Z,4.61
2023-01-17T17:20:07.248Z,4.53
2023-01-17T17:22:33.944Z,4.49
2023-01-17T17:25:00.664Z,4.41
2023-01-17T17:27:27.871Z,4.49
2023-01-17T17:30:02.278Z,4.49
2023-01-17T17:32:29.843Z,4.55
2023-01-17T17:34:56.421Z,4.56
2023-01-17T17:37:23.559Z,4.49
2023-01-17T17:39:50.107Z,4.52
2023-01-17T17:42:16.717Z,4.44
2023-01-17T17:44:43.309Z,4.39
2023-01-17T17:47:12.791Z,4.38
2023-01-17T17:49:42.092Z,4.46
2023-01-17T17:52:11.751Z,4.35
2023-01-17T17:54:38.519Z,4.38
2023-01-17T17:57:05.118Z,4.36
2023-01-17T17:59:31.891Z,4.34
2023-01-17T18:01:59.734Z,4.23
2023-01-17T18:04:26.483Z,4.13
2023-01-17T18:06:58.333Z,4.27
2023-01-17T18:09:24.995Z,4.28
2023-01-17T18:11:51.697Z,4.25
2023-01-17T18:14:21.032Z,4.28
2023-01-17T18:16:47.896Z,4.12
2023-01-17T18:19:23.081Z,4.25
2023-01-17T18:21:51.322Z,4.21
2023-01-17T18:24:20.437Z,4.13
2023-01-17T18:26:55.985Z,4.15
2023-01-17T18:29:23.840Z,4.17
2023-01-17T18:31:51.394Z,4.10
2023-01-17T18:34:21.277Z,4.14
2023-01-17T18:36:47.859Z,4.07
2023-01-17T18:39:15.744Z,4.09
2023-01-17T18:41:42.773Z,4.13
2023-01-17T18:44:14.376Z,4.08
2023-01-17T18:46:42.094Z,4.08
2023-01-17T18:49:12.595Z,4.18
2023-01-17T18:51:39.262Z,4.15
2023-01-17T18:54:10.421Z,4.20
2023-01-17T18:56:37.040Z,4.23
2023-01-17T18:59:08.965Z,4.17
2023-01-17T19:01:36.364Z,4.24
2023-01-17T19:04:07.413Z,4.17
2023-01-17T19:06:39.698Z,4.13
2023-01-17T19:09:08.139Z,4.11
2023-01-17T19:11:35.879Z,4.05
2023-01-17T19:14:02.925Z,4.12
2023-01-17T19:16:31.808Z,4.09
2023-01-17T19:19:02.669Z,4.19
2023-01-17T19:21:31.249Z,4.16
2023-01-17T19:23:58.713Z,4.20
2023-01-17T19:26:28.506Z,4.10
2023-01-17T19:28:56.644Z,4.14
2023-01-17T19:31:25.881Z,4.11
2023-01-17T19:33:56.560Z,4.02
2023-01-17T19:36:25.629Z,4.07
2023-01-17T19:39:03.934Z,4.04
2023-01-17T19:41:32.913Z,4.03
2023-01-17T19:44:03.689Z,4.02
2023-01-17T19:46:30.623Z,4.03
2023-01-17T19:48:57.583Z,4.05
2023-01-17T19:51:25.244Z,4.10
2023-01-17T19:53:53.539Z,3.96
2023-01-17T19:56:22.657Z,4.03
2023-01-17T19:58:50.731Z,4.02
2023-01-17T20:01:23.944Z,4.03
2023-01-17T20:03:57.608Z,4.00
2023-01-17T20:06:27.101Z,4.02
2023-01-17T20:08:53.655Z,3.99
2023-01-17T20:11:22.969Z,4.04
2023-01-17T20:14:01.359Z,3.95
2023-01-17T20:16:32.689Z,4.06
2023-01-17T20:19:00.209Z,3.94
2023-01-17T20:21:29.431Z,3.96
2023-01-17T20:24:02.448Z,3.95
2023-01-17T20:26:34.861Z,3.98
2023-01-17T20:29:10.892Z,4.01
2023-01-17T20:31:39.108Z,3.96
2023-01-17T20:34:07.127Z,3.99
2023-01-17T20:36:35.235Z,4.10
2023-01-17T20:39:06.637Z,4.04
2023-01-17T20:41:35.669Z,4.00
2023-01-17T20:44:04.198Z,4.09
2023-01-17T20:46:35.537Z,3.98
2023-01-17T20:49:07.633Z,3.94
2023-01-17T20:51:34.629Z,3.95
2023-01-17T20:54:03.567Z,3.89
2023-01-17T20:56:34.462Z,3.81
2023-01-17T20:59:03.917Z,3.84
2023-01-17T21:01:30.691Z,3.82
2023-01-17T21:03:59.751Z,3.69
2023-01-17T21:06:26.428Z,3.69
2023-01-17T21:08:53.329Z,3.72
2023-01-17T21:11:23.587Z,3.58
2023-01-17T21:13:51.290Z,3.64
2023-01-17T21:16:21.174Z,3.60
2023-01-17T21:18:48.650Z,3.58
2023-01-17T21:21:20.169Z,3.48
2023-01-17T21:23:46.768Z,3.64
2023-01-17T21:26:18.265Z,3.54
2023-01-17T21:28:45.979Z,3.56
2023-01-17T21:31:23.370Z,3.55
2023-01-17T21:33:55.669Z,3.53
2023-01-17T21:36:26.825Z,3.53
2023-01-17T21:38:57.003Z,3.60
2023-01-17T21:41:28.491Z,3.59
2023-01-17T21:43:58.791Z,3.50
2023-01-17T21:46:27.697Z,3.55
2023-01-17T21:48:54.408Z,3.53
2023-01-17T21:51:21.815Z,3.60
2023-01-17T21:53:50.664Z,3.49
2023-01-17T21:56:35.765Z,3.49
2023-01-17T21:59:04.798Z,3.63
2023-01-17T22:04:14.185Z,3.45
2023-01-17T22:06:43.406Z,3.47
2023-01-17T22:09:10.053Z,3.46
2023-01-17T22:11:38.961Z,3.51
2023-01-17T22:14:05.933Z,3.46
2023-01-17T22:16:32.511Z,3.39
2023-01-17T22:19:02.710Z,3.43
2023-01-17T22:21:29.343Z,3.52
2023-01-17T22:23:58.280Z,3.44
2023-01-17T22:26:29.684Z,3.48
2023-01-17T22:29:02.612Z,3.38
2023-01-17T22:31:31.405Z,3.36
2023-01-17T22:34:01.022Z,3.35
2023-01-17T22:36:28.057Z,3.39
2023-01-17T22:38:54.691Z,3.35
2023-01-17T22:41:25.551Z,3.34
2023-01-17T22:43:53.703Z,3.31
2023-01-17T22:46:28.111Z,3.33
2023-01-17T22:48:57.116Z,3.36
2023-01-17T22:51:25.487Z,3.38
2023-01-17T22:53:54.379Z,3.39
2023-01-17T22:56:23.519Z,3.36
2023-01-17T22:58:50.760Z,3.33
2023-01-17T23:01:17.630Z,3.42
2023-01-17T23:03:47.597Z,3.49
2023-01-17T23:06:16.397Z,3.44
2023-01-17T23:08:45.624Z,3.38
2023-01-17T23:11:41.869Z,3.53
2023-01-17T23:14:09.702Z,3.41
2023-01-17T23:16:56.525Z,3.35
2023-01-17T23:19:23.678Z,3.40
2023-01-17T23:22:10.709Z,3.27
2023-01-17T23:24:43.036Z,3.29
2023-01-17T23:27:35.392Z,3.26
2023-01-17T23:30:05.092Z,3.21
2023-01-17T23:32:31.743Z,3.13
2023-01-17T23:34:58.325Z,3.17
2023-01-17T23:37:52.130Z,3.14
2023-01-17T23:40:19.278Z,3.11
2023-01-17T23:43:05.044Z,3.09
2023-01-17T23:45:37.368Z,3.17
2023-01-17T23:48:05.727Z,3.12
2023-01-17T23:50:33.127Z,3.03
2023-01-17T23:53:00.151Z,2.99
2023-01-17T23:55:28.016Z,3.01
2023-01-17T23:57:55.010Z,2.91
